Airport View

Enter AWOS ICAO identifier for current METAR.

ex. KFNL

KSUW 051250Z AUTO 22006KT 10SM OVC065 14/12 A3004 RMK AO2 T01400118

5 Aug 2020 12:52

Frequency: 120.35

Phone: 715-394-0283

Other Area AWOS: KDYT - KDLH - KCOQ - KOLG

TAF KDLH 051137Z 0512/0612 VRB02KT P6SM BKN070 FM051500 24005KT P6SM FEW050 SCT150